sensor_id;sensor_type;location;lat;lon;timestamp;temperature;humidity
40257;DHT22;25977;45.462;9.210;2023-04-01T00:01:00;14.80;73.90
40257;DHT22;25977;45.462;9.210;2023-04-01T00:03:27;14.90;73.90
40257;DHT22;25977;45.462;9.210;2023-04-01T00:05:54;14.80;74.00
40257;DHT22;25977;45.462;9.210;2023-04-01T00:08:19;14.80;74.10
40257;DHT22;25977;45.462;9.210;2023-04-01T00:10:45;14.80;74.40
40257;DHT22;25977;45.462;9.210;2023-04-01T00:13:11;14.60;74.90
40257;DHT22;25977;45.462;9.210;2023-04-01T00:15:37;14.50;75.00
40257;DHT22;25977;45.462;9.210;2023-04-01T00:18:03;14.60;75.10
40257;DHT22;25977;45.462;9.210;2023-04-01T00:20:29;14.60;75.20
40257;DHT22;25977;45.462;9.210;2023-04-01T00:22:56;14.60;75.20
40257;DHT22;25977;45.462;9.210;2023-04-01T00:25:22;14.60;75.00
40257;DHT22;25977;45.462;9.210;2023-04-01T00:27:47;14.60;75.00
40257;DHT22;25977;45.462;9.210;2023-04-01T00:30:15;14.60;75.00
40257;DHT22;25977;45.462;9.210;2023-04-01T00:32:41;14.60;74.90
40257;DHT22;25977;45.462;9.210;2023-04-01T00:35:07;14.50;75.00
40257;DHT22;25977;45.462;9.210;2023-04-01T00:37:35;14.50;75.00
40257;DHT22;25977;45.462;9.210;2023-04-01T00:40:04;14.50;74.80
40257;DHT22;25977;45.462;9.210;2023-04-01T00:42:31;14.50;74.70
40257;DHT22;25977;45.462;9.210;2023-04-01T00:44:57;14.50;74.70
40257;DHT22;25977;45.462;9.210;2023-04-01T00:47:24;14.50;74.70
40257;DHT22;25977;45.462;9.210;2023-04-01T00:49:52;14.40;74.80
40257;DHT22;25977;45.462;9.210;2023-04-01T00:52:21;14.40;74.80
40257;DHT22;25977;45.462;9.210;2023-04-01T00:54:51;14.40;74.60
40257;DHT22;25977;45.462;9.210;2023-04-01T00:57:28;14.40;74.60
40257;DHT22;25977;45.462;9.210;2023-04-01T00:59:55;14.40;74.50
40257;DHT22;25977;45.462;9.210;2023-04-01T01:02:21;14.40;74.40
40257;DHT22;25977;45.462;9.210;2023-04-01T01:04:47;14.40;74.40
40257;DHT22;25977;45.462;9.210;2023-04-01T01:10:26;14.40;74.40
40257;DHT22;25977;45.462;9.210;2023-04-01T01:13:06;14.40;74.20
40257;DHT22;25977;45.462;9.210;2023-04-01T01:26:24;14.40;74.50
40257;DHT22;25977;45.462;9.210;2023-04-01T01:29:11;14.30;74.90
40257;DHT22;25977;45.462;9.210;2023-04-01T01:34:50;14.30;74.80
40257;DHT22;25977;45.462;9.210;2023-04-01T01:37:20;14.20;74.90
40257;DHT22;25977;45.462;9.210;2023-04-01T01:39:52;14.20;75.00
40257;DHT22;25977;45.462;9.210;2023-04-01T01:42:20;14.20;75.00
40257;DHT22;25977;45.462;9.210;2023-04-01T01:44:49;14.10;74.90
40257;DHT22;25977;45.462;9.210;2023-04-01T01:47:16;14.20;75.00
40257;DHT22;25977;45.462;9.210;2023-04-01T01:49:43;14.10;74.90
40257;DHT22;25977;45.462;9.210;2023-04-01T01:52:12;14.00;75.00
40257;DHT22;25977;45.462;9.210;2023-04-01T01:54:50;14.00;74.90
40257;DHT22;25977;45.462;9.210;2023-04-01T01:57:23;13.90;75.00
40257;DHT22;25977;45.462;9.210;2023-04-01T01:59:54;13.90;74.90
40257;DHT22;25977;45.462;9.210;2023-04-01T02:02:25;13.90;74.90
40257;DHT22;25977;45.462;9.210;2023-04-01T02:04:52;13.80;75.00
40257;DHT22;25977;45.462;9.210;2023-04-01T02:07:37;13.70;75.50
40257;DHT22;25977;45.462;9.210;2023-04-01T02:10:05;13.70;75.40
40257;DHT22;25977;45.462;9.210;2023-04-01T02:12:33;13.70;75.50
40257;DHT22;25977;45.462;9.210;2023-04-01T02:15:07;13.70;75.50
40257;DHT22;25977;45.462;9.210;2023-04-01T02:17:38;13.70;75.40
40257;DHT22;25977;45.462;9.210;2023-04-01T02:22:40;13.80;75.20
40257;DHT22;25977;45.462;9.210;2023-04-01T02:25:11;13.80;75.60
40257;DHT22;25977;45.462;9.210;2023-04-01T02:27:39;13.80;75.10
40257;DHT22;25977;45.462;9.210;2023-04-01T02:30:06;13.80;75.00
40257;DHT22;25977;45.462;9.210;2023-04-01T02:32:33;13.80;75.10
40257;DHT22;25977;45.462;9.210;2023-04-01T02:35:07;13.80;75.10
40257;DHT22;25977;45.462;9.210;2023-04-01T02:37:33;13.80;75.10
40257;DHT22;25977;45.462;9.210;2023-04-01T02:40:01;13.80;75.10
40257;DHT22;25977;45.462;9.210;2023-04-01T02:42:27;13.80;75.10
40257;DHT22;25977;45.462;9.210;2023-04-01T02:44:53;13.80;75.20
40257;DHT22;25977;45.462;9.210;2023-04-01T02:47:19;13.70;75.20
40257;DHT22;25977;45.462;9.210;2023-04-01T02:49:44;13.80;75.10
40257;DHT22;25977;45.462;9.210;2023-04-01T02:52:11;13.80;75.00
40257;DHT22;25977;45.462;9.210;2023-04-01T02:54:38;13.70;74.90
40257;DHT22;25977;45.462;9.210;2023-04-01T02:57:03;13.80;74.90
40257;DHT22;25977;45.462;9.210;2023-04-01T02:59:29;13.80;75.00
40257;DHT22;25977;45.462;9.210;2023-04-01T03:01:56;13.80;75.00
40257;DHT22;25977;45.462;9.210;2023-04-01T03:04:21;13.80;75.00
40257;DHT22;25977;45.462;9.210;2023-04-01T03:06:47;13.70;74.90
40257;DHT22;25977;45.462;9.210;2023-04-01T03:09:13;13.70;75.00
40257;DHT22;25977;45.462;9.210;2023-04-01T03:11:39;13.70;75.00
40257;DHT22;25977;45.462;9.210;2023-04-01T03:14:06;13.50;75.20
40257;DHT22;25977;45.462;9.210;2023-04-01T03:16:32;13.50;75.20
40257;DHT22;25977;45.462;9.210;2023-04-01T03:18:58;13.60;75.30
40257;DHT22;25977;45.462;9.210;2023-04-01T03:21:25;13.50;75.20
40257;DHT22;25977;45.462;9.210;2023-04-01T03:23:51;13.50;75.20
40257;DHT22;25977;45.462;9.210;2023-04-01T03:26:18;13.60;75.20
40257;DHT22;25977;45.462;9.210;2023-04-01T03:28:44;13.50;75.10
40257;DHT22;25977;45.462;9.210;2023-04-01T03:31:10;13.50;75.00
40257;DHT22;25977;45.462;9.210;2023-04-01T03:33:42;13.50;75.00
40257;DHT22;25977;45.462;9.210;2023-04-01T03:36:08;13.50;75.10
40257;DHT22;25977;45.462;9.210;2023-04-01T03:38:35;13.50;75.10
40257;DHT22;25977;45.462;9.210;2023-04-01T03:41:01;13.40;74.90
40257;DHT22;25977;45.462;9.210;2023-04-01T03:43:27;13.50;75.00
40257;DHT22;25977;45.462;9.210;2023-04-01T03:45:53;13.50;75.10
40257;DHT22;25977;45.462;9.210;2023-04-01T03:48:20;13.40;75.00
40257;DHT22;25977;45.462;9.210;2023-04-01T03:50:46;13.50;75.00
40257;DHT22;25977;45.462;9.210;2023-04-01T03:53:12;13.30;75.40
40257;DHT22;25977;45.462;9.210;2023-04-01T03:55:41;13.40;75.20
40257;DHT22;25977;45.462;9.210;2023-04-01T03:58:07;13.40;74.90
40257;DHT22;25977;45.462;9.210;2023-04-01T04:00:34;13.40;74.80
40257;DHT22;25977;45.462;9.210;2023-04-01T04:03:01;13.40;74.40
40257;DHT22;25977;45.462;9.210;2023-04-01T04:05:31;13.40;74.40
40257;DHT22;25977;45.462;9.210;2023-04-01T04:07:57;13.40;74.50
40257;DHT22;25977;45.462;9.210;2023-04-01T04:10:23;13.40;74.60
40257;DHT22;25977;45.462;9.210;2023-04-01T04:12:50;13.50;74.70
40257;DHT22;25977;45.462;9.210;2023-04-01T04:15:17;13.50;74.60
40257;DHT22;25977;45.462;9.210;2023-04-01T04:17:44;13.40;74.50
40257;DHT22;25977;45.462;9.210;2023-04-01T04:20:10;13.50;74.50
40257;DHT22;25977;45.462;9.210;2023-04-01T04:22:36;13.50;74.40
40257;DHT22;25977;45.462;9.210;2023-04-01T04:25:04;13.40;74.20
40257;DHT22;25977;45.462;9.210;2023-04-01T04:27:30;13.50;74.10
40257;DHT22;25977;45.462;9.210;2023-04-01T04:30:06;13.40;74.10
40257;DHT22;25977;45.462;9.210;2023-04-01T04:32:32;13.40;73.90
40257;DHT22;25977;45.462;9.210;2023-04-01T04:34:58;13.60;77.30
40257;DHT22;25977;45.462;9.210;2023-04-01T04:37:24;13.40;73.90
40257;DHT22;25977;45.462;9.210;2023-04-01T04:39:51;13.80;80.10
40257;DHT22;25977;45.462;9.210;2023-04-01T04:42:17;13.60;73.50
40257;DHT22;25977;45.462;9.210;2023-04-01T04:44:43;13.20;76.00
40257;DHT22;25977;45.462;9.210;2023-04-01T04:47:10;13.20;76.90
40257;DHT22;25977;45.462;9.210;2023-04-01T04:49:36;13.30;76.00
40257;DHT22;25977;45.462;9.210;2023-04-01T04:52:05;13.10;77.80
40257;DHT22;25977;45.462;9.210;2023-04-01T04:54:31;13.30;76.90
40257;DHT22;25977;45.462;9.210;2023-04-01T04:56:59;13.70;75.10
40257;DHT22;25977;45.462;9.210;2023-04-01T04:59:26;13.20;76.30
40257;DHT22;25977;45.462;9.210;2023-04-01T05:02:04;13.70;82.70
40257;DHT22;25977;45.462;9.210;2023-04-01T05:04:33;13.30;72.10
40257;DHT22;25977;45.462;9.210;2023-04-01T05:06:59;13.30;71.70
40257;DHT22;25977;45.462;9.210;2023-04-01T05:09:24;13.20;71.80
40257;DHT22;25977;45.462;9.210;2023-04-01T05:11:51;13.20;71.60
40257;DHT22;25977;45.462;9.210;2023-04-01T05:14:19;13.30;71.60
40257;DHT22;25977;45.462;9.210;2023-04-01T05:16:54;13.20;71.60
40257;DHT22;25977;45.462;9.210;2023-04-01T05:19:20;13.30;71.50
40257;DHT22;25977;45.462;9.210;2023-04-01T05:21:46;13.30;71.40
40257;DHT22;25977;45.462;9.210;2023-04-01T05:24:12;13.30;71.40
40257;DHT22;25977;45.462;9.210;2023-04-01T05:26:38;13.30;71.30
40257;DHT22;25977;45.462;9.210;2023-04-01T05:29:05;13.30;71.20
40257;DHT22;25977;45.462;9.210;2023-04-01T05:31:31;13.30;71.20
40257;DHT22;25977;45.462;9.210;2023-04-01T05:33:57;12.80;70.90
40257;DHT22;25977;45.462;9.210;2023-04-01T05:36:23;13.30;71.20
40257;DHT22;25977;45.462;9.210;2023-04-01T05:41:18;13.00;71.90
40257;DHT22;25977;45.462;9.210;2023-04-01T05:43:45;13.40;71.20
40257;DHT22;25977;45.462;9.210;2023-04-01T05:49:08;13.40;70.90
40257;DHT22;25977;45.462;9.210;2023-04-01T05:51:35;13.50;71.60
40257;DHT22;25977;45.462;9.210;2023-04-01T05:54:00;13.50;71.50
40257;DHT22;25977;45.462;9.210;2023-04-01T05:56:26;13.50;71.30
40257;DHT22;25977;45.462;9.210;2023-04-01T05:58:53;13.50;71.20
40257;DHT22;25977;45.462;9.210;2023-04-01T06:01:21;13.60;71.10
40257;DHT22;25977;45.462;9.210;2023-04-01T06:03:47;13.60;71.20
40257;DHT22;25977;45.462;9.210;2023-04-01T06:06:25;13.50;71.10
40257;DHT22;25977;45.462;9.210;2023-04-01T06:08:58;13.50;71.10
40257;DHT22;25977;45.462;9.210;2023-04-01T06:11:55;13.40;71.00
40257;DHT22;25977;45.462;9.210;2023-04-01T06:14:49;13.40;71.20
40257;DHT22;25977;45.462;9.210;2023-04-01T06:20:26;13.30;72.80
40257;DHT22;25977;45.462;9.210;2023-04-01T06:31:10;13.60;70.50
40257;DHT22;25977;45.462;9.210;2023-04-01T06:33:51;14.10;70.40
40257;DHT22;25977;45.462;9.210;2023-04-01T06:51:02;22.40;54.10
40257;DHT22;25977;45.462;9.210;2023-04-01T06:54:10;23.10;52.80
40257;DHT22;25977;45.462;9.210;2023-04-01T06:56:58;23.50;51.50
40257;DHT22;25977;45.462;9.210;2023-04-01T06:59:28;23.50;50.80
40257;DHT22;25977;45.462;9.210;2023-04-01T07:02:06;24.00;50.60
40257;DHT22;25977;45.462;9.210;2023-04-01T07:04:44;24.50;49.60
40257;DHT22;25977;45.462;9.210;2023-04-01T07:07:31;24.80;49.00
40257;DHT22;25977;45.462;9.210;2023-04-01T07:10:05;25.10;48.50
40257;DHT22;25977;45.462;9.210;2023-04-01T07:15:41;25.50;47.70
40257;DHT22;25977;45.462;9.210;2023-04-01T07:18:24;25.50;47.30
40257;DHT22;25977;45.462;9.210;2023-04-01T07:20:53;25.60;47.00
40257;DHT22;25977;45.462;9.210;2023-04-01T07:23:23;26.10;46.80
40257;DHT22;25977;45.462;9.210;2023-04-01T07:26:24;26.50;46.30
40257;DHT22;25977;45.462;9.210;2023-04-01T07:29:26;26.90;45.90
40257;DHT22;25977;45.462;9.210;2023-04-01T07:49:03;25.90;44.90
40257;DHT22;25977;45.462;9.210;2023-04-01T07:59:59;22.80;47.30
40257;DHT22;25977;45.462;9.210;2023-04-01T08:08:54;21.70;48.60
40257;DHT22;25977;45.462;9.210;2023-04-01T08:12:13;21.60;49.00
40257;DHT22;25977;45.462;9.210;2023-04-01T08:15:07;21.50;48.80
40257;DHT22;25977;45.462;9.210;2023-04-01T08:21:03;21.40;49.40
40257;DHT22;25977;45.462;9.210;2023-04-01T08:23:33;21.20;49.00
40257;DHT22;25977;45.462;9.210;2023-04-01T08:26:23;20.30;50.20
40257;DHT22;25977;45.462;9.210;2023-04-01T08:29:04;20.50;50.50
40257;DHT22;25977;45.462;9.210;2023-04-01T08:32:03;20.70;50.40
40257;DHT22;25977;45.462;9.210;2023-04-01T08:34:38;20.80;49.90
40257;DHT22;25977;45.462;9.210;2023-04-01T08:37:12;20.70;50.00
40257;DHT22;25977;45.462;9.210;2023-04-01T08:39:48;20.70;50.50
40257;DHT22;25977;45.462;9.210;2023-04-01T08:42:36;20.90;50.70
40257;DHT22;25977;45.462;9.210;2023-04-01T09:02:00;21.50;51.00
40257;DHT22;25977;45.462;9.210;2023-04-01T09:10:40;21.50;51.70
40257;DHT22;25977;45.462;9.210;2023-04-01T09:14:01;21.60;51.40
40257;DHT22;25977;45.462;9.210;2023-04-01T09:16:35;21.70;51.40
40257;DHT22;25977;45.462;9.210;2023-04-01T09:27:27;20.60;51.50
40257;DHT22;25977;45.462;9.210;2023-04-01T09:43:34;20.80;52.20
40257;DHT22;25977;45.462;9.210;2023-04-01T09:46:16;20.70;51.60
40257;DHT22;25977;45.462;9.210;2023-04-01T09:49:11;20.80;51.40
40257;DHT22;25977;45.462;9.210;2023-04-01T10:06:41;20.70;52.70
40257;DHT22;25977;45.462;9.210;2023-04-01T10:09:30;20.80;53.40
40257;DHT22;25977;45.462;9.210;2023-04-01T10:20:40;20.90;53.70
40257;DHT22;25977;45.462;9.210;2023-04-01T10:29:36;20.80;53.40
40257;DHT22;25977;45.462;9.210;2023-04-01T10:35:03;20.90;53.10
40257;DHT22;25977;45.462;9.210;2023-04-01T10:52:32;20.90;51.90
40257;DHT22;25977;45.462;9.210;2023-04-01T10:55:36;21.00;51.30
40257;DHT22;25977;45.462;9.210;2023-04-01T10:58:55;20.90;50.80
40257;DHT22;25977;45.462;9.210;2023-04-01T11:24:59;20.90;46.40
40257;DHT22;25977;45.462;9.210;2023-04-01T11:36:30;21.00;42.90
40257;DHT22;25977;45.462;9.210;2023-04-01T11:42:42;21.10;41.40
40257;DHT22;25977;45.462;9.210;2023-04-01T11:45:45;21.10;41.50
40257;DHT22;25977;45.462;9.210;2023-04-01T11:49:49;21.20;42.30
40257;DHT22;25977;45.462;9.210;2023-04-01T11:55:10;21.10;42.50
40257;DHT22;25977;45.462;9.210;2023-04-01T12:03:24;20.90;42.50
40257;DHT22;25977;45.462;9.210;2023-04-01T12:25:53;21.20;41.30
40257;DHT22;25977;45.462;9.210;2023-04-01T12:32:21;21.00;38.70
40257;DHT22;25977;45.462;9.210;2023-04-01T12:40:02;21.30;38.00
40257;DHT22;25977;45.462;9.210;2023-04-01T12:42:54;21.40;38.50
40257;DHT22;25977;45.462;9.210;2023-04-01T12:55:49;20.90;39.00
40257;DHT22;25977;45.462;9.210;2023-04-01T13:01:29;21.30;37.90
40257;DHT22;25977;45.462;9.210;2023-04-01T13:04:09;21.30;38.10
40257;DHT22;25977;45.462;9.210;2023-04-01T13:07:19;21.40;38.40
40257;DHT22;25977;45.462;9.210;2023-04-01T13:12:56;21.60;37.70
40257;DHT22;25977;45.462;9.210;2023-04-01T13:15:49;21.70;37.10
40257;DHT22;25977;45.462;9.210;2023-04-01T13:30:05;21.60;36.30
40257;DHT22;25977;45.462;9.210;2023-04-01T13:40:46;21.80;36.30
40257;DHT22;25977;45.462;9.210;2023-04-01T13:56:56;22.10;37.10
40257;DHT22;25977;45.462;9.210;2023-04-01T14:00:06;22.10;36.10
40257;DHT22;25977;45.462;9.210;2023-04-01T14:10:43;21.90;35.70
40257;DHT22;25977;45.462;9.210;2023-04-01T14:15:59;21.70;36.50
40257;DHT22;25977;45.462;9.210;2023-04-01T14:30:27;21.80;36.40
40257;DHT22;25977;45.462;9.210;2023-04-01T14:33:12;21.70;35.90
40257;DHT22;25977;45.462;9.210;2023-04-01T14:35:58;21.70;35.90
40257;DHT22;25977;45.462;9.210;2023-04-01T14:49:35;21.50;35.70
40257;DHT22;25977;45.462;9.210;2023-04-01T14:54:47;21.50;36.30
40257;DHT22;25977;45.462;9.210;2023-04-01T14:57:24;21.50;36.10
40257;DHT22;25977;45.462;9.210;2023-04-01T15:00:17;21.50;35.70
40257;DHT22;25977;45.462;9.210;2023-04-01T15:03:20;21.40;35.60
40257;DHT22;25977;45.462;9.210;2023-04-01T15:05:56;21.40;35.90
40257;DHT22;25977;45.462;9.210;2023-04-01T15:08:26;21.20;35.50
40257;DHT22;25977;45.462;9.210;2023-04-01T15:14:08;21.10;36.00
40257;DHT22;25977;45.462;9.210;2023-04-01T15:19:12;21.10;36.40
40257;DHT22;25977;45.462;9.210;2023-04-01T15:33:28;21.20;36.80
40257;DHT22;25977;45.462;9.210;2023-04-01T15:39:16;21.30;36.50
40257;DHT22;25977;45.462;9.210;2023-04-01T15:48:02;21.20;35.60
40257;DHT22;25977;45.462;9.210;2023-04-01T15:53:01;21.30;36.20
40257;DHT22;25977;45.462;9.210;2023-04-01T15:55:37;21.30;36.20
40257;DHT22;25977;45.462;9.210;2023-04-01T16:09:20;21.10;35.10
40257;DHT22;25977;45.462;9.210;2023-04-01T16:14:43;20.90;36.30
40257;DHT22;25977;45.462;9.210;2023-04-01T16:23:55;20.90;35.70
40257;DHT22;25977;45.462;9.210;2023-04-01T16:26:13;20.90;35.70
40257;DHT22;25977;45.462;9.210;2023-04-01T16:31:32;20.80;35.60
40257;DHT22;25977;45.462;9.210;2023-04-01T16:34:16;20.70;35.80
40257;DHT22;25977;45.462;9.210;2023-04-01T16:36:47;20.70;36.10
40257;DHT22;25977;45.462;9.210;2023-04-01T16:39:34;20.70;36.40
40257;DHT22;25977;45.462;9.210;2023-04-01T16:44:53;20.80;37.00
40257;DHT22;25977;45.462;9.210;2023-04-01T16:47:23;20.80;37.00
40257;DHT22;25977;45.462;9.210;2023-04-01T16:50:00;20.90;36.80
40257;DHT22;25977;45.462;9.210;2023-04-01T16:52:57;20.80;36.80
40257;DHT22;25977;45.462;9.210;2023-04-01T16:55:48;20.80;36.60
40257;DHT22;25977;45.462;9.210;2023-04-01T16:58:42;20.70;36.90
40257;DHT22;25977;45.462;9.210;2023-04-01T17:01:44;20.70;37.10
40257;DHT22;25977;45.462;9.210;2023-04-01T17:04:37;20.70;37.30
40257;DHT22;25977;45.462;9.210;2023-04-01T17:20:43;20.60;38.20
40257;DHT22;25977;45.462;9.210;2023-04-01T17:23:24;20.60;37.90
40257;DHT22;25977;45.462;9.210;2023-04-01T17:29:13;20.50;37.00
40257;DHT22;25977;45.462;9.210;2023-04-01T17:48:54;20.30;37.90
40257;DHT22;25977;45.462;9.210;2023-04-01T17:54:31;20.20;37.90
40257;DHT22;25977;45.462;9.210;2023-04-01T18:05:52;20.10;38.10
40257;DHT22;25977;45.462;9.210;2023-04-01T18:12:14;20.10;38.60
40257;DHT22;25977;45.462;9.210;2023-04-01T18:14:37;20.00;38.00
40257;DHT22;25977;45.462;9.210;2023-04-01T18:23:02;19.90;38.40
40257;DHT22;25977;45.462;9.210;2023-04-01T18:25:34;19.90;38.80
40257;DHT22;25977;45.462;9.210;2023-04-01T18:38:29;19.80;38.90
40257;DHT22;25977;45.462;9.210;2023-04-01T18:41:15;19.80;39.20
40257;DHT22;25977;45.462;9.210;2023-04-01T18:43:56;19.70;39.10
40257;DHT22;25977;45.462;9.210;2023-04-01T18:46:41;19.80;39.40
40257;DHT22;25977;45.462;9.210;2023-04-01T18:49:27;19.80;39.40
40257;DHT22;25977;45.462;9.210;2023-04-01T18:52:21;19.70;39.50
40257;DHT22;25977;45.462;9.210;2023-04-01T18:55:22;19.70;39.60
40257;DHT22;25977;45.462;9.210;2023-04-01T18:57:51;19.60;39.50
40257;DHT22;25977;45.462;9.210;2023-04-01T19:00:32;19.60;39.50
40257;DHT22;25977;45.462;9.210;2023-04-01T19:05:49;19.60;40.30
40257;DHT22;25977;45.462;9.210;2023-04-01T19:08:30;19.60;40.00
40257;DHT22;25977;45.462;9.210;2023-04-01T19:16:35;19.50;40.20
40257;DHT22;25977;45.462;9.210;2023-04-01T19:27:50;19.40;40.50
40257;DHT22;25977;45.462;9.210;2023-04-01T19:35:26;19.50;40.70
40257;DHT22;25977;45.462;9.210;2023-04-01T19:37:56;19.40;40.80
40257;DHT22;25977;45.462;9.210;2023-04-01T19:46:20;19.30;40.00
40257;DHT22;25977;45.462;9.210;2023-04-01T19:49:02;19.30;40.20
40257;DHT22;25977;45.462;9.210;2023-04-01T19:51:59;19.20;40.30
40257;DHT22;25977;45.462;9.210;2023-04-01T19:57:49;19.00;40.70
40257;DHT22;25977;45.462;9.210;2023-04-01T20:00:25;19.00;40.60
40257;DHT22;25977;45.462;9.210;2023-04-01T20:03:03;19.00;40.70
40257;DHT22;25977;45.462;9.210;2023-04-01T20:05:55;18.90;40.70
40257;DHT22;25977;45.462;9.210;2023-04-01T20:13:57;19.00;41.10
40257;DHT22;25977;45.462;9.210;2023-04-01T20:16:49;19.00;41.30
40257;DHT22;25977;45.462;9.210;2023-04-01T20:19:50;19.00;41.50
40257;DHT22;25977;45.462;9.210;2023-04-01T20:22:28;19.00;41.60
40257;DHT22;25977;45.462;9.210;2023-04-01T20:24:59;19.00;41.50
40257;DHT22;25977;45.462;9.210;2023-04-01T20:27:39;18.90;41.40
40257;DHT22;25977;45.462;9.210;2023-04-01T20:33:01;18.90;41.20
40257;DHT22;25977;45.462;9.210;2023-04-01T20:44:27;18.90;41.70
40257;DHT22;25977;45.462;9.210;2023-04-01T21:07:00;18.70;41.00
40257;DHT22;25977;45.462;9.210;2023-04-01T21:23:23;18.70;41.50
40257;DHT22;25977;45.462;9.210;2023-04-01T21:26:25;18.70;41.30
40257;DHT22;25977;45.462;9.210;2023-04-01T21:29:34;18.60;41.20
40257;DHT22;25977;45.462;9.210;2023-04-01T21:48:42;18.30;40.60
40257;DHT22;25977;45.462;9.210;2023-04-01T21:51:18;18.30;41.00
40257;DHT22;25977;45.462;9.210;2023-04-01T21:54:06;18.30;41.10
40257;DHT22;25977;45.462;9.210;2023-04-01T22:00:08;18.30;41.40
40257;DHT22;25977;45.462;9.210;2023-04-01T22:06:00;18.20;41.80
40257;DHT22;25977;45.462;9.210;2023-04-01T22:08:33;18.20;42.00
40257;DHT22;25977;45.462;9.210;2023-04-01T22:11:08;18.10;42.00
40257;DHT22;25977;45.462;9.210;2023-04-01T22:16:23;18.10;42.10
40257;DHT22;25977;45.462;9.210;2023-04-01T22:19:02;18.00;42.00
40257;DHT22;25977;45.462;9.210;2023-04-01T22:21:58;18.00;42.00
40257;DHT22;25977;45.462;9.210;2023-04-01T22:25:02;18.00;42.10
40257;DHT22;25977;45.462;9.210;2023-04-01T22:30:26;17.90;41.90
40257;DHT22;25977;45.462;9.210;2023-04-01T22:35:37;17.90;42.10
40257;DHT22;25977;45.462;9.210;2023-04-01T22:38:13;17.90;42.00
40257;DHT22;25977;45.462;9.210;2023-04-01T22:43:44;17.80;41.80
40257;DHT22;25977;45.462;9.210;2023-04-01T22:47:16;17.80;42.10
40257;DHT22;25977;45.462;9.210;2023-04-01T22:54:45;17.80;42.30
40257;DHT22;25977;45.462;9.210;2023-04-01T23:00:10;17.70;42.20
40257;DHT22;25977;45.462;9.210;2023-04-01T23:02:45;17.70;42.20
40257;DHT22;25977;45.462;9.210;2023-04-01T23:05:17;17.70;42.30
40257;DHT22;25977;45.462;9.210;2023-04-01T23:10:51;17.70;42.60
40257;DHT22;25977;45.462;9.210;2023-04-01T23:13:24;17.70;42.70
40257;DHT22;25977;45.462;9.210;2023-04-01T23:15:53;17.60;42.60
40257;DHT22;25977;45.462;9.210;2023-04-01T23:18:45;17.70;49.50
40257;DHT22;25977;45.462;9.210;2023-04-01T23:26:39;17.50;42.60
40257;DHT22;25977;45.462;9.210;2023-04-01T23:29:15;17.50;42.50
40257;DHT22;25977;45.462;9.210;2023-04-01T23:31:45;17.50;42.50
40257;DHT22;25977;45.462;9.210;2023-04-01T23:36:47;17.40;42.70
40257;DHT22;25977;45.462;9.210;2023-04-01T23:39:48;17.30;42.90
40257;DHT22;25977;45.462;9.210;2023-04-01T23:42:27;17.30;42.90
40257;DHT22;25977;45.462;9.210;2023-04-01T23:45:00;17.30;43.20
40257;DHT22;25977;45.462;9.210;2023-04-01T23:47:34;17.10;43.50
40257;DHT22;25977;45.462;9.210;2023-04-01T23:50:16;17.10;43.90
40257;DHT22;25977;45.462;9.210;2023-04-01T23:53:02;17.00;44.30
40257;DHT22;25977;45.462;9.210;2023-04-01T23:55:32;17.00;44.50
40257;DHT22;25977;45.462;9.210;2023-04-01T23:58:14;17.00;44.70
